Time;durP1;ratioP1;P1;durP2;ratioP2;P2;SDS_P1;SDS_P2;PMS_P1;PMS_P2;Temp;Humidity;BMP_temperature;BMP_pressure;BME280_temperature;BME280_humidity;BME280_pressure;Samples;Min_cycle;Max_cycle;Signal;HPM_P1;HPM_P2
2023/03/26 00:12:26;;;;;;;10.30;6.50;;;;;;;10.86;88.48;98890.81;672647;1274;138910;-79
2023/03/26 00:27:29;;;;;;;12.70;8.00;;;;;;;10.68;89.25;98879.71;671399;1263;139506;-79
2023/03/26 00:42:33;;;;;;;13.50;5.50;;;;;;;10.71;88.69;98876.39;669929;1262;138899;-79
2023/03/26 00:57:36;;;;;;;16.60;8.30;;;;;;;10.66;88.89;98860.48;671474;1263;139275;-79
2023/03/26 01:12:39;;;;;;;10.70;7.50;;;;;;;10.62;89.10;98848.82;670801;1273;138829;-79
2023/03/26 01:27:54;;;;;;;11.20;6.80;;;;;;;10.60;89.45;98840.80;678125;1262;139877;-80
2023/03/26 01:43:03;;;;;;;9.50;6.40;;;;;;;10.61;89.53;98830.51;672137;1273;140004;-79
2023/03/26 01:58:06;;;;;;;11.30;7.00;;;;;;;10.67;89.23;98818.58;670718;1272;139940;-79
2023/03/26 02:13:11;;;;;;;14.00;6.60;;;;;;;10.55;90.76;98814.70;674928;1271;139621;-80
2023/03/26 02:28:15;;;;;;;10.30;6.60;;;;;;;10.51;91.28;98804.98;672151;1263;140581;-79
2023/03/26 02:43:19;;;;;;;12.80;8.20;;;;;;;10.49;91.55;98782.87;672633;1262;139677;-79
2023/03/26 02:58:25;;;;;;;12.90;7.50;;;;;;;10.48;91.61;98777.34;671756;1260;140118;-78
2023/03/26 03:13:29;;;;;;;12.90;8.20;;;;;;;10.48;92.17;98774.55;670315;1262;139253;-78
2023/03/26 03:28:32;;;;;;;10.60;6.70;;;;;;;10.51;91.59;98767.06;671631;1263;139520;-78
2023/03/26 03:43:36;;;;;;;12.50;7.30;;;;;;;10.47;92.10;98774.16;673123;1261;139719;-78
2023/03/26 03:58:52;;;;;;;16.00;9.00;;;;;;;10.44;92.33;98766.45;669255;1273;139966;-79
2023/03/26 04:14:03;;;;;;;12.90;6.50;;;;;;;10.39;92.64;98763.86;672205;1264;138889;-78
2023/03/26 04:29:41;;;;;;;9.90;5.70;;;;;;;10.36;92.73;98755.39;672715;1263;139790;-78
2023/03/26 04:44:49;;;;;;;14.60;6.20;;;;;;;10.36;92.28;98742.48;673249;1262;139626;-78
2023/03/26 04:59:53;;;;;;;7.70;5.60;;;;;;;10.33;93.47;98735.19;672286;1260;138638;-77
2023/03/26 05:14:56;;;;;;;10.70;6.40;;;;;;;10.16;95.09;98731.18;671900;1263;139375;-78
2023/03/26 05:30:26;;;;;;;15.60;11.10;;;;;;;10.24;96.46;98731.38;670345;1264;138648;-78
2023/03/26 05:45:33;;;;;;;14.00;8.90;;;;;;;10.23;97.29;98728.21;672974;1262;139901;-79
2023/03/26 06:00:47;;;;;;;9.10;6.50;;;;;;;10.33;96.66;98726.40;669506;1273;139035;-79
2023/03/26 06:15:53;;;;;;;11.50;6.60;;;;;;;10.38;96.83;98726.33;671729;1263;139500;-78
2023/03/26 06:31:05;;;;;;;13.20;7.30;;;;;;;10.64;95.69;98732.34;676433;1263;139242;-79
2023/03/26 06:46:17;;;;;;;12.40;6.20;;;;;;;10.77;94.41;98725.96;669762;1263;139494;-79
2023/03/26 07:01:30;;;;;;;8.60;6.50;;;;;;;10.79;93.02;98720.83;674234;1262;139503;-78
2023/03/26 07:16:53;;;;;;;7.10;5.20;;;;;;;10.82;92.76;98719.83;679205;1263;138330;-78
2023/03/26 07:32:16;;;;;;;8.00;4.90;;;;;;;10.85;92.51;98724.95;672671;1274;140228;-78
2023/03/26 07:47:33;;;;;;;7.70;4.00;;;;;;;11.19;90.68;98716.89;673408;1263;140030;-78
2023/03/26 08:03:21;;;;;;;23.90;12.10;;;;;;;11.14;89.22;98715.81;671747;1262;139640;-78
2023/03/26 08:19:18;;;;;;;19.30;11.90;;;;;;;11.34;88.45;98716.75;668976;1263;139556;-79
2023/03/26 08:34:21;;;;;;;16.50;7.90;;;;;;;11.48;87.99;98719.67;670749;1262;139950;-78
2023/03/26 08:50:22;;;;;;;11.00;5.20;;;;;;;11.08;92.62;98720.36;675566;1262;138687;-78
2023/03/26 09:05:53;;;;;;;9.60;6.60;;;;;;;11.72;92.27;98720.06;670309;1271;139574;-78
2023/03/26 09:21:29;;;;;;;22.50;12.10;;;;;;;11.94;87.61;98725.21;676109;1263;138458;-78
2023/03/26 09:36:43;;;;;;;5.80;4.30;;;;;;;12.31;82.70;98736.70;677700;1260;139875;-78
2023/03/26 09:52:05;;;;;;;41.90;19.10;;;;;;;12.41;77.80;98735.79;673148;1258;140086;-77
2023/03/26 10:07:29;;;;;;;10.10;6.80;;;;;;;12.54;77.98;98740.84;673732;1262;139183;-80
2023/03/26 10:22:45;;;;;;;5.30;3.50;;;;;;;12.28;80.87;98745.36;672788;1258;139964;-80
2023/03/26 10:38:13;;;;;;;18.20;13.80;;;;;;;13.80;79.27;98734.30;676523;1262;138864;-78
2023/03/26 10:53:42;;;;;;;43.40;21.80;;;;;;;14.62;74.92;98724.48;675055;1262;139015;-78
2023/03/26 11:08:54;;;;;;;7.50;3.60;;;;;;;13.38;73.71;98749.19;675154;1269;139619;-77
2023/03/26 11:24:33;;;;;;;8.30;3.80;;;;;;;12.18;78.34;98770.31;675889;1262;138814;-77
2023/03/26 11:39:58;;;;;;;10.70;4.40;;;;;;;11.84;79.88;98783.77;678792;1263;139481;-77
2023/03/26 11:55:02;;;;;;;6.30;3.70;;;;;;;12.36;79.72;98784.88;674707;1262;138998;-79
2023/03/26 12:10:19;;;;;;;6.00;2.80;;;;;;;13.62;76.85;98773.45;675133;1263;138570;-78
2023/03/26 12:25:25;;;;;;;4.20;2.30;;;;;;;14.42;74.53;98778.95;677341;1258;138521;-78
2023/03/26 12:40:35;;;;;;;7.10;3.30;;;;;;;15.01;72.39;98769.01;675198;1262;142064;-77
2023/03/26 12:55:50;;;;;;;4.60;2.30;;;;;;;16.28;70.53;98761.88;673109;1265;138983;-78
2023/03/26 13:10:56;;;;;;;19.60;12.10;;;;;;;16.29;65.33;98752.73;673153;1263;139106;-78
2023/03/26 13:26:29;;;;;;;15.00;9.00;;;;;;;15.48;67.31;98753.17;673267;1266;139544;-79
2023/03/26 13:41:50;;;;;;;10.90;4.90;;;;;;;16.43;62.24;98761.45;671993;1271;139350;-80
2023/03/26 13:57:04;;;;;;;11.40;4.50;;;;;;;16.86;60.85;98757.73;675125;1262;139583;-80
2023/03/26 14:12:38;;;;;;;17.30;8.70;;;;;;;20.38;57.09;98749.67;673679;1263;139508;-80
2023/03/26 14:28:00;;;;;;;12.10;5.30;;;;;;;21.02;51.48;98750.09;676669;1262;140254;-79
2023/03/26 14:43:41;;;;;;;31.00;15.40;;;;;;;16.22;56.93;98761.56;670777;1262;138956;-78
2023/03/26 14:58:49;;;;;;;31.10;15.30;;;;;;;14.24;63.38;98780.73;675166;1262;139358;-79
2023/03/26 15:14:30;;;;;;;35.30;16.40;;;;;;;13.59;67.41;98783.52;676283;1268;138932;-78
2023/03/26 15:32:55;;;;;;;31.80;17.10;;;;;;;13.40;69.67;98793.44;650030;1307;545522;-77
2023/03/26 15:48:11;;;;;;;41.70;19.90;;;;;;;13.26;71.07;98804.57;667776;1273;138732;-78
2023/03/26 16:03:29;;;;;;;39.00;16.80;;;;;;;13.13;71.91;98805.99;669708;1272;138870;-77
2023/03/26 16:18:41;;;;;;;56.30;31.40;;;;;;;16.48;66.98;98796.91;663800;1275;139490;-79
2023/03/26 16:33:54;;;;;;;28.20;13.50;;;;;;;14.69;64.02;98806.81;671619;1272;138925;-79
2023/03/26 16:49:11;;;;;;;36.20;14.30;;;;;;;13.09;66.21;98823.36;670514;1288;138664;-79
2023/03/26 17:04:22;;;;;;;12.20;5.80;;;;;;;12.82;66.84;98831.64;675959;1273;139185;-79
2023/03/26 17:19:57;;;;;;;199.40;82.30;;;;;;;12.64;68.14;98836.91;672690;1274;138247;-78
2023/03/26 17:35:03;;;;;;;104.80;33.00;;;;;;;12.65;68.93;98855.59;673269;1274;139188;-78
2023/03/26 17:50:19;;;;;;;41.40;17.40;;;;;;;12.38;69.23;98868.39;673579;1276;140444;-76
2023/03/26 18:05:28;;;;;;;44.00;20.00;;;;;;;12.24;69.33;98876.20;672227;1274;139731;-80
2023/03/26 18:20:36;;;;;;;28.80;14.70;;;;;;;11.91;70.08;98888.66;667512;1274;139020;-79
2023/03/26 18:35:44;;;;;;;85.80;42.20;;;;;;;11.71;71.03;98895.02;671791;1272;139367;-79
2023/03/26 18:50:55;;;;;;;75.40;41.20;;;;;;;11.66;71.55;98894.39;672077;1272;139757;-78
2023/03/26 19:06:01;;;;;;;76.20;32.60;;;;;;;11.93;71.56;98889.75;668105;1276;139669;-79
2023/03/26 19:21:06;;;;;;;184.00;70.30;;;;;;;12.01;72.14;98877.15;668537;1282;139379;-78
2023/03/26 19:36:13;;;;;;;62.70;26.40;;;;;;;11.93;72.53;98869.27;669494;1273;139242;-79
2023/03/26 19:51:37;;;;;;;16.50;8.80;;;;;;;11.54;72.78;98864.41;677694;1270;139142;-78
2023/03/26 20:06:41;;;;;;;10.80;5.40;;;;;;;11.25;73.06;98864.26;675988;1272;138740;-79
2023/03/26 20:21:46;;;;;;;11.00;5.60;;;;;;;11.06;73.00;98867.79;679413;1270;141918;-79
2023/03/26 20:36:54;;;;;;;16.80;6.90;;;;;;;10.80;72.26;98872.23;675190;1268;139448;-78
2023/03/26 20:51:58;;;;;;;10.80;4.20;;;;;;;10.66;71.46;98875.92;676968;1267;139062;-79
2023/03/26 21:07:03;;;;;;;13.00;4.10;;;;;;;10.48;70.29;98871.75;677395;1269;139947;-77
2023/03/26 21:22:38;;;;;;;12.50;4.40;;;;;;;10.15;68.97;98891.13;674063;1270;139424;-78
2023/03/26 21:37:44;;;;;;;18.10;6.10;;;;;;;9.86;68.12;98896.03;672151;1267;139514;-78
2023/03/26 21:52:48;;;;;;;11.10;3.70;;;;;;;9.79;68.22;98905.44;671052;1270;139420;-80
2023/03/26 22:07:55;;;;;;;13.40;3.80;;;;;;;9.93;68.38;98910.65;673499;1269;138932;-78
2023/03/26 22:22:59;;;;;;;42.90;18.00;;;;;;;9.68;68.21;98907.39;677117;1280;139078;-79
2023/03/26 22:38:03;;;;;;;22.90;9.30;;;;;;;9.17;68.27;98911.48;676062;1269;138578;-78
2023/03/26 22:53:07;;;;;;;36.80;15.90;;;;;;;8.80;67.96;98914.84;675020;1267;139003;-77
2023/03/26 23:08:11;;;;;;;70.70;23.50;;;;;;;8.29;68.41;98917.13;678572;1266;140013;-78
2023/03/26 23:23:14;;;;;;;77.90;37.90;;;;;;;7.85;68.87;98905.88;677696;1270;139363;-77
2023/03/26 23:38:20;;;;;;;27.80;11.00;;;;;;;7.29;70.45;98898.05;675107;1266;140361;-77
2023/03/26 23:53:24;;;;;;;91.70;48.10;;;;;;;7.02;71.41;98893.87;675856;1270;139096;-78
